sensor_id;sensor_type;location;lat;lon;timestamp;P1;durP1;ratioP1;P2;durP2;ratioP2
71148;SDS011;59072;42.144;25.200;2023-08-06T00:00:00;14.65;;;10.10;;
71148;SDS011;59072;42.144;25.200;2023-08-06T00:02:26;15.52;;;9.90;;
71148;SDS011;59072;42.144;25.200;2023-08-06T00:04:51;12.55;;;10.32;;
71148;SDS011;59072;42.144;25.200;2023-08-06T00:07:17;16.48;;;9.77;;
71148;SDS011;59072;42.144;25.200;2023-08-06T00:09:43;11.73;;;9.43;;
71148;SDS011;59072;42.144;25.200;2023-08-06T00:12:08;14.48;;;9.50;;
71148;SDS011;59072;42.144;25.200;2023-08-06T00:14:34;13.45;;;9.10;;
71148;SDS011;59072;42.144;25.200;2023-08-06T00:16:59;12.43;;;9.10;;
71148;SDS011;59072;42.144;25.200;2023-08-06T00:19:27;15.73;;;8.73;;
71148;SDS011;59072;42.144;25.200;2023-08-06T00:21:53;13.20;;;9.57;;
71148;SDS011;59072;42.144;25.200;2023-08-06T00:24:18;14.23;;;9.90;;
71148;SDS011;59072;42.144;25.200;2023-08-06T00:26:43;14.43;;;9.27;;
71148;SDS011;59072;42.144;25.200;2023-08-06T00:29:09;14.68;;;9.40;;
71148;SDS011;59072;42.144;25.200;2023-08-06T00:31:34;14.23;;;9.57;;
71148;SDS011;59072;42.144;25.200;2023-08-06T00:34:00;13.68;;;9.73;;
71148;SDS011;59072;42.144;25.200;2023-08-06T00:36:25;12.15;;;9.55;;
71148;SDS011;59072;42.144;25.200;2023-08-06T00:45:16;14.65;;;10.32;;
71148;SDS011;59072;42.144;25.200;2023-08-06T00:47:42;12.77;;;9.80;;
71148;SDS011;59072;42.144;25.200;2023-08-06T00:50:07;14.93;;;10.30;;
71148;SDS011;59072;42.144;25.200;2023-08-06T00:52:34;12.82;;;9.52;;
71148;SDS011;59072;42.144;25.200;2023-08-06T00:55:00;12.00;;;10.25;;
71148;SDS011;59072;42.144;25.200;2023-08-06T00:57:26;13.98;;;10.15;;
71148;SDS011;59072;42.144;25.200;2023-08-06T00:59:52;16.52;;;10.45;;
71148;SDS011;59072;42.144;25.200;2023-08-06T01:02:18;12.40;;;9.30;;
71148;SDS011;59072;42.144;25.200;2023-08-06T01:04:44;13.25;;;9.70;;
71148;SDS011;59072;42.144;25.200;2023-08-06T01:10:21;12.88;;;10.40;;
71148;SDS011;59072;42.144;25.200;2023-08-06T01:13:08;17.85;;;10.02;;
71148;SDS011;59072;42.144;25.200;2023-08-06T01:15:41;13.73;;;10.13;;
71148;SDS011;59072;42.144;25.200;2023-08-06T01:18:10;11.75;;;9.73;;
71148;SDS011;59072;42.144;25.200;2023-08-06T01:20:35;14.70;;;10.57;;
71148;SDS011;59072;42.144;25.200;2023-08-06T01:23:01;18.40;;;11.05;;
71148;SDS011;59072;42.144;25.200;2023-08-06T01:25:28;16.10;;;10.52;;
71148;SDS011;59072;42.144;25.200;2023-08-06T01:28:00;16.27;;;10.48;;
71148;SDS011;59072;42.144;25.200;2023-08-06T01:30:34;15.45;;;10.93;;
71148;SDS011;59072;42.144;25.200;2023-08-06T01:33:06;14.45;;;10.90;;
71148;SDS011;59072;42.144;25.200;2023-08-06T01:35:34;14.75;;;11.10;;
71148;SDS011;59072;42.144;25.200;2023-08-06T01:40:28;13.93;;;10.35;;
71148;SDS011;59072;42.144;25.200;2023-08-06T01:42:54;16.35;;;10.93;;
71148;SDS011;59072;42.144;25.200;2023-08-06T01:45:20;14.95;;;11.32;;
71148;SDS011;59072;42.144;25.200;2023-08-06T01:47:45;14.07;;;10.45;;
71148;SDS011;59072;42.144;25.200;2023-08-06T01:50:11;16.30;;;10.95;;
71148;SDS011;59072;42.144;25.200;2023-08-06T01:52:36;14.63;;;11.50;;
71148;SDS011;59072;42.144;25.200;2023-08-06T01:55:02;16.40;;;10.45;;
71148;SDS011;59072;42.144;25.200;2023-08-06T01:57:27;16.73;;;12.45;;
71148;SDS011;59072;42.144;25.200;2023-08-06T01:59:53;14.07;;;10.82;;
71148;SDS011;59072;42.144;25.200;2023-08-06T02:02:18;14.23;;;11.50;;
71148;SDS011;59072;42.144;25.200;2023-08-06T02:04:44;16.92;;;11.85;;
71148;SDS011;59072;42.144;25.200;2023-08-06T02:09:37;16.50;;;11.73;;
71148;SDS011;59072;42.144;25.200;2023-08-06T02:12:03;13.57;;;11.00;;
71148;SDS011;59072;42.144;25.200;2023-08-06T02:14:29;16.63;;;12.20;;
71148;SDS011;59072;42.144;25.200;2023-08-06T02:16:54;13.38;;;11.93;;
71148;SDS011;59072;42.144;25.200;2023-08-06T02:19:20;16.08;;;11.50;;
71148;SDS011;59072;42.144;25.200;2023-08-06T02:21:45;14.85;;;11.13;;
71148;SDS011;59072;42.144;25.200;2023-08-06T02:24:13;15.05;;;11.32;;
71148;SDS011;59072;42.144;25.200;2023-08-06T02:26:38;13.77;;;10.80;;
71148;SDS011;59072;42.144;25.200;2023-08-06T02:29:06;13.75;;;11.88;;
71148;SDS011;59072;42.144;25.200;2023-08-06T02:33:56;15.32;;;11.10;;
71148;SDS011;59072;42.144;25.200;2023-08-06T02:36:23;13.50;;;10.73;;
71148;SDS011;59072;42.144;25.200;2023-08-06T02:38:49;16.27;;;11.18;;
71148;SDS011;59072;42.144;25.200;2023-08-06T02:41:14;16.15;;;10.98;;
71148;SDS011;59072;42.144;25.200;2023-08-06T02:43:40;15.73;;;10.68;;
71148;SDS011;59072;42.144;25.200;2023-08-06T02:46:05;12.88;;;10.00;;
71148;SDS011;59072;42.144;25.200;2023-08-06T02:48:31;12.90;;;10.90;;
71148;SDS011;59072;42.144;25.200;2023-08-06T02:50:57;14.68;;;11.10;;
71148;SDS011;59072;42.144;25.200;2023-08-06T02:53:23;11.90;;;10.43;;
71148;SDS011;59072;42.144;25.200;2023-08-06T02:55:49;14.48;;;10.80;;
71148;SDS011;59072;42.144;25.200;2023-08-06T02:58:15;14.18;;;11.10;;
71148;SDS011;59072;42.144;25.200;2023-08-06T03:00:41;16.73;;;11.77;;
71148;SDS011;59072;42.144;25.200;2023-08-06T03:03:09;12.45;;;11.00;;
71148;SDS011;59072;42.144;25.200;2023-08-06T03:05:35;16.90;;;11.13;;
71148;SDS011;59072;42.144;25.200;2023-08-06T03:08:00;24.92;;;12.18;;
71148;SDS011;59072;42.144;25.200;2023-08-06T03:10:26;20.15;;;12.02;;
71148;SDS011;59072;42.144;25.200;2023-08-06T03:12:54;13.85;;;11.35;;
71148;SDS011;59072;42.144;25.200;2023-08-06T03:15:19;14.95;;;12.20;;
71148;SDS011;59072;42.144;25.200;2023-08-06T03:17:45;15.05;;;11.32;;
71148;SDS011;59072;42.144;25.200;2023-08-06T03:20:10;14.02;;;12.00;;
71148;SDS011;59072;42.144;25.200;2023-08-06T03:22:36;15.35;;;11.52;;
71148;SDS011;59072;42.144;25.200;2023-08-06T03:25:01;14.85;;;11.32;;
71148;SDS011;59072;42.144;25.200;2023-08-06T03:27:27;15.98;;;11.77;;
71148;SDS011;59072;42.144;25.200;2023-08-06T03:29:52;14.88;;;11.32;;
71148;SDS011;59072;42.144;25.200;2023-08-06T03:32:18;13.38;;;11.70;;
71148;SDS011;59072;42.144;25.200;2023-08-06T03:34:43;14.90;;;12.15;;
71148;SDS011;59072;42.144;25.200;2023-08-06T03:37:09;16.15;;;12.35;;
71148;SDS011;59072;42.144;25.200;2023-08-06T03:39:34;16.60;;;11.85;;
71148;SDS011;59072;42.144;25.200;2023-08-06T03:42:00;16.45;;;11.50;;
71148;SDS011;59072;42.144;25.200;2023-08-06T03:44:25;18.63;;;13.57;;
71148;SDS011;59072;42.144;25.200;2023-08-06T03:46:52;16.13;;;11.40;;
71148;SDS011;59072;42.144;25.200;2023-08-06T03:49:17;18.95;;;12.75;;
71148;SDS011;59072;42.144;25.200;2023-08-06T03:51:43;18.75;;;13.85;;
71148;SDS011;59072;42.144;25.200;2023-08-06T03:54:08;19.35;;;15.13;;
71148;SDS011;59072;42.144;25.200;2023-08-06T03:56:33;18.02;;;13.40;;
71148;SDS011;59072;42.144;25.200;2023-08-06T03:58:59;14.70;;;11.70;;
71148;SDS011;59072;42.144;25.200;2023-08-06T04:01:24;17.30;;;11.88;;
71148;SDS011;59072;42.144;25.200;2023-08-06T04:03:50;16.15;;;11.50;;
71148;SDS011;59072;42.144;25.200;2023-08-06T04:06:15;15.23;;;13.48;;
71148;SDS011;59072;42.144;25.200;2023-08-06T04:08:41;15.68;;;11.65;;
71148;SDS011;59072;42.144;25.200;2023-08-06T04:11:06;19.83;;;13.02;;
71148;SDS011;59072;42.144;25.200;2023-08-06T04:13:31;16.65;;;13.30;;
71148;SDS011;59072;42.144;25.200;2023-08-06T04:16:03;17.80;;;13.45;;
71148;SDS011;59072;42.144;25.200;2023-08-06T04:18:29;17.52;;;12.70;;
71148;SDS011;59072;42.144;25.200;2023-08-06T04:20:55;15.38;;;13.63;;
71148;SDS011;59072;42.144;25.200;2023-08-06T04:23:22;19.20;;;15.10;;
71148;SDS011;59072;42.144;25.200;2023-08-06T04:25:48;18.02;;;15.25;;
71148;SDS011;59072;42.144;25.200;2023-08-06T04:28:13;16.25;;;14.30;;
71148;SDS011;59072;42.144;25.200;2023-08-06T04:30:38;19.15;;;14.00;;
71148;SDS011;59072;42.144;25.200;2023-08-06T04:33:04;19.00;;;14.35;;
71148;SDS011;59072;42.144;25.200;2023-08-06T04:35:29;17.08;;;13.80;;
71148;SDS011;59072;42.144;25.200;2023-08-06T04:37:55;17.58;;;13.70;;
71148;SDS011;59072;42.144;25.200;2023-08-06T04:40:20;16.80;;;14.63;;
71148;SDS011;59072;42.144;25.200;2023-08-06T04:42:45;18.80;;;14.57;;
71148;SDS011;59072;42.144;25.200;2023-08-06T04:45:11;17.20;;;15.35;;
71148;SDS011;59072;42.144;25.200;2023-08-06T04:47:36;17.92;;;15.13;;
71148;SDS011;59072;42.144;25.200;2023-08-06T04:50:02;18.90;;;15.32;;
71148;SDS011;59072;42.144;25.200;2023-08-06T04:52:27;19.70;;;16.27;;
71148;SDS011;59072;42.144;25.200;2023-08-06T04:54:56;24.42;;;19.10;;
71148;SDS011;59072;42.144;25.200;2023-08-06T04:57:21;26.90;;;21.27;;
71148;SDS011;59072;42.144;25.200;2023-08-06T04:59:47;27.10;;;20.58;;
71148;SDS011;59072;42.144;25.200;2023-08-06T05:02:12;25.63;;;20.58;;
71148;SDS011;59072;42.144;25.200;2023-08-06T05:04:38;32.03;;;23.77;;
71148;SDS011;59072;42.144;25.200;2023-08-06T05:07:04;30.05;;;22.67;;
71148;SDS011;59072;42.144;25.200;2023-08-06T05:09:30;33.27;;;24.47;;
71148;SDS011;59072;42.144;25.200;2023-08-06T05:11:56;29.30;;;22.92;;
71148;SDS011;59072;42.144;25.200;2023-08-06T05:14:21;29.52;;;23.67;;
71148;SDS011;59072;42.144;25.200;2023-08-06T05:16:47;34.80;;;26.80;;
71148;SDS011;59072;42.144;25.200;2023-08-06T05:19:12;32.47;;;25.92;;
71148;SDS011;59072;42.144;25.200;2023-08-06T05:21:38;32.30;;;25.73;;
71148;SDS011;59072;42.144;25.200;2023-08-06T05:24:03;33.67;;;26.13;;
71148;SDS011;59072;42.144;25.200;2023-08-06T05:26:29;34.72;;;28.23;;
71148;SDS011;59072;42.144;25.200;2023-08-06T05:28:54;37.80;;;29.48;;
71148;SDS011;59072;42.144;25.200;2023-08-06T05:31:19;39.40;;;30.90;;
71148;SDS011;59072;42.144;25.200;2023-08-06T05:33:45;42.13;;;32.60;;
71148;SDS011;59072;42.144;25.200;2023-08-06T05:36:10;42.90;;;33.47;;
71148;SDS011;59072;42.144;25.200;2023-08-06T05:38:36;47.28;;;34.03;;
71148;SDS011;59072;42.144;25.200;2023-08-06T05:41:01;41.33;;;32.22;;
71148;SDS011;59072;42.144;25.200;2023-08-06T05:43:27;40.38;;;30.15;;
71148;SDS011;59072;42.144;25.200;2023-08-06T05:45:52;40.67;;;30.05;;
71148;SDS011;59072;42.144;25.200;2023-08-06T05:50:47;38.75;;;30.13;;
71148;SDS011;59072;42.144;25.200;2023-08-06T05:53:13;42.47;;;31.48;;
71148;SDS011;59072;42.144;25.200;2023-08-06T05:55:38;38.33;;;29.60;;
71148;SDS011;59072;42.144;25.200;2023-08-06T05:58:04;38.42;;;29.60;;
71148;SDS011;59072;42.144;25.200;2023-08-06T06:00:29;36.08;;;30.92;;
71148;SDS011;59072;42.144;25.200;2023-08-06T06:02:55;35.83;;;29.23;;
71148;SDS011;59072;42.144;25.200;2023-08-06T06:05:20;38.67;;;29.67;;
71148;SDS011;59072;42.144;25.200;2023-08-06T06:07:46;34.72;;;28.27;;
71148;SDS011;59072;42.144;25.200;2023-08-06T06:10:11;37.85;;;29.30;;
71148;SDS011;59072;42.144;25.200;2023-08-06T06:12:40;35.50;;;28.55;;
71148;SDS011;59072;42.144;25.200;2023-08-06T06:15:06;39.00;;;29.00;;
71148;SDS011;59072;42.144;25.200;2023-08-06T06:17:31;37.33;;;28.88;;
71148;SDS011;59072;42.144;25.200;2023-08-06T06:19:57;41.42;;;29.60;;
71148;SDS011;59072;42.144;25.200;2023-08-06T06:22:22;35.95;;;30.00;;
71148;SDS011;59072;42.144;25.200;2023-08-06T06:27:15;40.28;;;31.35;;
71148;SDS011;59072;42.144;25.200;2023-08-06T06:29:41;38.28;;;31.80;;
71148;SDS011;59072;42.144;25.200;2023-08-06T06:32:06;32.75;;;26.55;;
71148;SDS011;59072;42.144;25.200;2023-08-06T06:34:32;36.63;;;28.75;;
71148;SDS011;59072;42.144;25.200;2023-08-06T06:36:57;32.53;;;27.20;;
71148;SDS011;59072;42.144;25.200;2023-08-06T06:39:25;36.65;;;29.35;;
71148;SDS011;59072;42.144;25.200;2023-08-06T06:41:50;36.55;;;29.20;;
71148;SDS011;59072;42.144;25.200;2023-08-06T06:44:16;39.90;;;30.30;;
71148;SDS011;59072;42.144;25.200;2023-08-06T06:46:41;31.58;;;26.90;;
71148;SDS011;59072;42.144;25.200;2023-08-06T06:49:07;39.70;;;29.92;;
71148;SDS011;59072;42.144;25.200;2023-08-06T06:51:32;42.05;;;30.10;;
71148;SDS011;59072;42.144;25.200;2023-08-06T06:53:58;42.42;;;31.20;;
71148;SDS011;59072;42.144;25.200;2023-08-06T06:56:23;44.15;;;32.63;;
71148;SDS011;59072;42.144;25.200;2023-08-06T06:58:49;39.90;;;30.67;;
71148;SDS011;59072;42.144;25.200;2023-08-06T07:01:14;40.97;;;31.30;;
71148;SDS011;59072;42.144;25.200;2023-08-06T07:03:39;46.00;;;33.53;;
71148;SDS011;59072;42.144;25.200;2023-08-06T07:06:06;39.72;;;30.75;;
71148;SDS011;59072;42.144;25.200;2023-08-06T07:08:31;46.83;;;33.58;;
71148;SDS011;59072;42.144;25.200;2023-08-06T07:11:03;39.45;;;30.63;;
71148;SDS011;59072;42.144;25.200;2023-08-06T07:13:30;40.17;;;32.83;;
71148;SDS011;59072;42.144;25.200;2023-08-06T07:15:56;35.63;;;29.30;;
71148;SDS011;59072;42.144;25.200;2023-08-06T07:18:22;38.55;;;30.25;;
71148;SDS011;59072;42.144;25.200;2023-08-06T07:20:49;41.83;;;32.22;;
71148;SDS011;59072;42.144;25.200;2023-08-06T07:23:15;39.13;;;31.85;;
71148;SDS011;59072;42.144;25.200;2023-08-06T07:25:40;36.45;;;28.23;;
71148;SDS011;59072;42.144;25.200;2023-08-06T07:28:06;36.85;;;30.10;;
71148;SDS011;59072;42.144;25.200;2023-08-06T07:30:31;38.83;;;32.85;;
71148;SDS011;59072;42.144;25.200;2023-08-06T07:32:57;66.32;;;50.47;;
71148;SDS011;59072;42.144;25.200;2023-08-06T07:35:22;43.67;;;35.20;;
71148;SDS011;59072;42.144;25.200;2023-08-06T07:37:48;79.90;;;59.03;;
71148;SDS011;59072;42.144;25.200;2023-08-06T07:40:13;52.00;;;40.28;;
71148;SDS011;59072;42.144;25.200;2023-08-06T07:42:39;42.97;;;33.80;;
71148;SDS011;59072;42.144;25.200;2023-08-06T07:45:05;43.60;;;33.95;;
71148;SDS011;59072;42.144;25.200;2023-08-06T07:47:32;45.50;;;35.90;;
71148;SDS011;59072;42.144;25.200;2023-08-06T07:49:57;41.88;;;33.33;;
71148;SDS011;59072;42.144;25.200;2023-08-06T07:52:23;40.78;;;31.88;;
71148;SDS011;59072;42.144;25.200;2023-08-06T07:54:48;42.67;;;35.10;;
71148;SDS011;59072;42.144;25.200;2023-08-06T07:57:13;41.88;;;34.70;;
71148;SDS011;59072;42.144;25.200;2023-08-06T07:59:40;37.38;;;31.88;;
71148;SDS011;59072;42.144;25.200;2023-08-06T08:02:05;37.22;;;30.48;;
71148;SDS011;59072;42.144;25.200;2023-08-06T08:04:31;44.38;;;39.58;;
71148;SDS011;59072;42.144;25.200;2023-08-06T08:06:56;36.95;;;30.80;;
71148;SDS011;59072;42.144;25.200;2023-08-06T08:09:21;85.95;;;75.63;;
71148;SDS011;59072;42.144;25.200;2023-08-06T08:11:47;99.00;;;87.00;;
71148;SDS011;59072;42.144;25.200;2023-08-06T08:14:12;108.30;;;95.78;;
71148;SDS011;59072;42.144;25.200;2023-08-06T08:16:40;36.42;;;30.83;;
71148;SDS011;59072;42.144;25.200;2023-08-06T08:19:06;51.38;;;45.42;;
71148;SDS011;59072;42.144;25.200;2023-08-06T08:21:31;35.00;;;30.75;;
71148;SDS011;59072;42.144;25.200;2023-08-06T08:26:29;33.45;;;29.02;;
71148;SDS011;59072;42.144;25.200;2023-08-06T08:28:54;40.72;;;31.65;;
71148;SDS011;59072;42.144;25.200;2023-08-06T08:31:20;34.17;;;30.42;;
71148;SDS011;59072;42.144;25.200;2023-08-06T08:33:45;35.65;;;31.88;;
71148;SDS011;59072;42.144;25.200;2023-08-06T08:36:11;37.33;;;32.22;;
71148;SDS011;59072;42.144;25.200;2023-08-06T08:38:36;38.08;;;32.00;;
71148;SDS011;59072;42.144;25.200;2023-08-06T08:41:01;36.97;;;32.03;;
71148;SDS011;59072;42.144;25.200;2023-08-06T08:43:27;35.17;;;31.25;;
71148;SDS011;59072;42.144;25.200;2023-08-06T08:45:54;35.45;;;31.75;;
71148;SDS011;59072;42.144;25.200;2023-08-06T08:48:20;34.47;;;30.98;;
71148;SDS011;59072;42.144;25.200;2023-08-06T08:50:49;32.92;;;28.98;;
71148;SDS011;59072;42.144;25.200;2023-08-06T08:53:16;31.85;;;28.52;;
71148;SDS011;59072;42.144;25.200;2023-08-06T08:55:46;33.83;;;30.27;;
71148;SDS011;59072;42.144;25.200;2023-08-06T08:58:13;32.72;;;29.33;;
71148;SDS011;59072;42.144;25.200;2023-08-06T09:00:40;33.80;;;29.77;;
71148;SDS011;59072;42.144;25.200;2023-08-06T09:03:07;35.70;;;31.83;;
71148;SDS011;59072;42.144;25.200;2023-08-06T09:05:33;36.10;;;31.48;;
71148;SDS011;59072;42.144;25.200;2023-08-06T09:08:01;38.30;;;32.85;;
71148;SDS011;59072;42.144;25.200;2023-08-06T09:10:28;31.92;;;26.75;;
71148;SDS011;59072;42.144;25.200;2023-08-06T09:12:55;26.25;;;21.02;;
71148;SDS011;59072;42.144;25.200;2023-08-06T09:15:25;33.00;;;20.10;;
71148;SDS011;59072;42.144;25.200;2023-08-06T09:17:54;22.48;;;15.88;;
71148;SDS011;59072;42.144;25.200;2023-08-06T09:20:20;19.83;;;14.95;;
71148;SDS011;59072;42.144;25.200;2023-08-06T09:22:46;21.00;;;15.70;;
71148;SDS011;59072;42.144;25.200;2023-08-06T09:27:49;21.35;;;15.93;;
71148;SDS011;59072;42.144;25.200;2023-08-06T09:30:28;18.83;;;14.30;;
71148;SDS011;59072;42.144;25.200;2023-08-06T09:32:56;16.98;;;13.50;;
71148;SDS011;59072;42.144;25.200;2023-08-06T09:35:22;19.55;;;14.68;;
71148;SDS011;59072;42.144;25.200;2023-08-06T09:37:47;18.83;;;13.88;;
71148;SDS011;59072;42.144;25.200;2023-08-06T09:40:26;17.33;;;13.20;;
71148;SDS011;59072;42.144;25.200;2023-08-06T09:42:55;17.92;;;13.45;;
71148;SDS011;59072;42.144;25.200;2023-08-06T09:45:22;18.10;;;13.13;;
71148;SDS011;59072;42.144;25.200;2023-08-06T09:47:56;17.63;;;12.93;;
71148;SDS011;59072;42.144;25.200;2023-08-06T09:50:22;17.77;;;13.35;;
71148;SDS011;59072;42.144;25.200;2023-08-06T09:52:50;17.45;;;13.48;;
71148;SDS011;59072;42.144;25.200;2023-08-06T09:55:17;17.80;;;14.48;;
71148;SDS011;59072;42.144;25.200;2023-08-06T09:57:43;19.05;;;15.10;;
71148;SDS011;59072;42.144;25.200;2023-08-06T10:00:09;20.30;;;15.35;;
71148;SDS011;59072;42.144;25.200;2023-08-06T10:02:39;20.90;;;17.25;;
71148;SDS011;59072;42.144;25.200;2023-08-06T10:05:08;21.05;;;18.20;;
71148;SDS011;59072;42.144;25.200;2023-08-06T10:07:36;23.00;;;19.88;;
71148;SDS011;59072;42.144;25.200;2023-08-06T10:10:04;24.35;;;21.75;;
71148;SDS011;59072;42.144;25.200;2023-08-06T10:12:34;27.60;;;22.85;;
71148;SDS011;59072;42.144;25.200;2023-08-06T10:15:03;26.27;;;21.70;;
71148;SDS011;59072;42.144;25.200;2023-08-06T10:17:31;27.70;;;22.92;;
71148;SDS011;59072;42.144;25.200;2023-08-06T10:20:02;26.15;;;22.27;;
71148;SDS011;59072;42.144;25.200;2023-08-06T10:22:32;27.40;;;24.05;;
71148;SDS011;59072;42.144;25.200;2023-08-06T10:24:58;25.83;;;23.13;;
71148;SDS011;59072;42.144;25.200;2023-08-06T10:33:00;23.93;;;20.77;;
71148;SDS011;59072;42.144;25.200;2023-08-06T10:35:29;19.27;;;17.15;;
71148;SDS011;59072;42.144;25.200;2023-08-06T10:40:33;16.20;;;13.43;;
71148;SDS011;59072;42.144;25.200;2023-08-06T10:42:59;14.80;;;12.23;;
71148;SDS011;59072;42.144;25.200;2023-08-06T10:45:25;14.93;;;11.80;;
71148;SDS011;59072;42.144;25.200;2023-08-06T10:47:54;13.43;;;10.85;;
71148;SDS011;59072;42.144;25.200;2023-08-06T10:50:23;10.10;;;8.07;;
71148;SDS011;59072;42.144;25.200;2023-08-06T10:52:49;10.68;;;7.57;;
71148;SDS011;59072;42.144;25.200;2023-08-06T10:55:21;11.38;;;8.35;;
71148;SDS011;59072;42.144;25.200;2023-08-06T10:57:48;9.35;;;7.03;;
71148;SDS011;59072;42.144;25.200;2023-08-06T11:00:14;10.32;;;6.95;;
71148;SDS011;59072;42.144;25.200;2023-08-06T11:02:39;9.85;;;7.63;;
71148;SDS011;59072;42.144;25.200;2023-08-06T11:05:05;9.30;;;7.20;;
71148;SDS011;59072;42.144;25.200;2023-08-06T11:07:31;9.25;;;6.47;;
71148;SDS011;59072;42.144;25.200;2023-08-06T11:12:30;8.13;;;6.97;;
71148;SDS011;59072;42.144;25.200;2023-08-06T11:14:56;8.25;;;6.30;;
71148;SDS011;59072;42.144;25.200;2023-08-06T11:17:22;20.75;;;17.52;;
71148;SDS011;59072;42.144;25.200;2023-08-06T11:19:47;15.30;;;13.80;;
71148;SDS011;59072;42.144;25.200;2023-08-06T11:22:15;9.43;;;8.45;;
71148;SDS011;59072;42.144;25.200;2023-08-06T11:24:41;7.15;;;5.55;;
71148;SDS011;59072;42.144;25.200;2023-08-06T11:27:13;11.43;;;9.60;;
71148;SDS011;59072;42.144;25.200;2023-08-06T11:29:42;7.60;;;6.35;;
71148;SDS011;59072;42.144;25.200;2023-08-06T11:32:09;9.68;;;8.77;;
71148;SDS011;59072;42.144;25.200;2023-08-06T11:34:37;9.63;;;7.20;;
71148;SDS011;59072;42.144;25.200;2023-08-06T11:37:03;8.57;;;6.65;;
71148;SDS011;59072;42.144;25.200;2023-08-06T11:39:42;7.10;;;5.82;;
71148;SDS011;59072;42.144;25.200;2023-08-06T11:42:11;7.65;;;6.25;;
71148;SDS011;59072;42.144;25.200;2023-08-06T11:44:37;13.02;;;11.35;;
71148;SDS011;59072;42.144;25.200;2023-08-06T11:47:11;12.65;;;11.35;;
71148;SDS011;59072;42.144;25.200;2023-08-06T11:49:50;7.47;;;5.82;;
71148;SDS011;59072;42.144;25.200;2023-08-06T11:52:17;9.10;;;6.32;;
71148;SDS011;59072;42.144;25.200;2023-08-06T11:54:45;10.80;;;8.48;;
71148;SDS011;59072;42.144;25.200;2023-08-06T11:57:24;7.78;;;6.82;;
71148;SDS011;59072;42.144;25.200;2023-08-06T11:59:50;7.18;;;5.88;;
71148;SDS011;59072;42.144;25.200;2023-08-06T12:02:15;9.15;;;6.60;;
71148;SDS011;59072;42.144;25.200;2023-08-06T12:05:00;9.52;;;8.52;;
71148;SDS011;59072;42.144;25.200;2023-08-06T12:07:32;8.23;;;7.28;;
71148;SDS011;59072;42.144;25.200;2023-08-06T12:10:00;7.93;;;6.13;;
71148;SDS011;59072;42.144;25.200;2023-08-06T12:12:26;9.75;;;6.32;;
71148;SDS011;59072;42.144;25.200;2023-08-06T12:14:51;7.43;;;6.60;;
71148;SDS011;59072;42.144;25.200;2023-08-06T12:17:17;17.33;;;15.68;;
71148;SDS011;59072;42.144;25.200;2023-08-06T12:19:45;8.90;;;6.68;;
71148;SDS011;59072;42.144;25.200;2023-08-06T12:22:12;8.38;;;6.78;;
71148;SDS011;59072;42.144;25.200;2023-08-06T12:24:38;8.32;;;6.55;;
71148;SDS011;59072;42.144;25.200;2023-08-06T12:27:05;7.80;;;6.57;;
71148;SDS011;59072;42.144;25.200;2023-08-06T12:29:30;8.02;;;6.05;;
71148;SDS011;59072;42.144;25.200;2023-08-06T12:31:56;8.30;;;6.72;;
71148;SDS011;59072;42.144;25.200;2023-08-06T12:34:22;8.15;;;6.05;;
71148;SDS011;59072;42.144;25.200;2023-08-06T12:36:47;8.73;;;7.30;;
71148;SDS011;59072;42.144;25.200;2023-08-06T12:39:13;7.43;;;6.60;;
71148;SDS011;59072;42.144;25.200;2023-08-06T12:41:38;8.82;;;6.97;;
71148;SDS011;59072;42.144;25.200;2023-08-06T12:44:04;7.97;;;6.88;;
71148;SDS011;59072;42.144;25.200;2023-08-06T12:46:32;7.38;;;6.30;;
71148;SDS011;59072;42.144;25.200;2023-08-06T12:48:57;8.85;;;6.68;;
71148;SDS011;59072;42.144;25.200;2023-08-06T12:51:24;9.07;;;6.07;;
71148;SDS011;59072;42.144;25.200;2023-08-06T12:53:50;7.88;;;6.47;;
71148;SDS011;59072;42.144;25.200;2023-08-06T12:56:15;8.35;;;7.20;;
71148;SDS011;59072;42.144;25.200;2023-08-06T12:58:41;7.30;;;6.22;;
71148;SDS011;59072;42.144;25.200;2023-08-06T13:01:07;8.13;;;6.25;;
71148;SDS011;59072;42.144;25.200;2023-08-06T13:03:33;7.50;;;6.40;;
71148;SDS011;59072;42.144;25.200;2023-08-06T13:05:58;8.40;;;6.10;;
71148;SDS011;59072;42.144;25.200;2023-08-06T13:08:24;9.05;;;6.50;;
71148;SDS011;59072;42.144;25.200;2023-08-06T13:10:49;9.20;;;6.60;;
71148;SDS011;59072;42.144;25.200;2023-08-06T13:13:17;7.88;;;6.35;;
71148;SDS011;59072;42.144;25.200;2023-08-06T13:15:43;10.18;;;7.47;;
71148;SDS011;59072;42.144;25.200;2023-08-06T13:18:08;7.63;;;6.05;;
71148;SDS011;59072;42.144;25.200;2023-08-06T13:20:33;10.20;;;6.57;;
71148;SDS011;59072;42.144;25.200;2023-08-06T13:23:03;7.75;;;6.68;;
71148;SDS011;59072;42.144;25.200;2023-08-06T13:25:28;7.13;;;6.05;;
71148;SDS011;59072;42.144;25.200;2023-08-06T13:27:53;7.15;;;5.97;;
71148;SDS011;59072;42.144;25.200;2023-08-06T13:30:19;9.13;;;6.65;;
71148;SDS011;59072;42.144;25.200;2023-08-06T13:32:48;6.88;;;6.10;;
71148;SDS011;59072;42.144;25.200;2023-08-06T13:35:14;7.70;;;6.10;;
71148;SDS011;59072;42.144;25.200;2023-08-06T13:37:40;8.82;;;5.45;;
71148;SDS011;59072;42.144;25.200;2023-08-06T13:40:05;8.60;;;5.82;;
71148;SDS011;59072;42.144;25.200;2023-08-06T13:42:32;7.70;;;5.82;;
71148;SDS011;59072;42.144;25.200;2023-08-06T13:44:57;7.15;;;5.45;;
71148;SDS011;59072;42.144;25.200;2023-08-06T13:47:27;6.25;;;5.05;;
71148;SDS011;59072;42.144;25.200;2023-08-06T13:49:53;6.47;;;4.97;;
71148;SDS011;59072;42.144;25.200;2023-08-06T13:52:18;6.88;;;4.70;;
71148;SDS011;59072;42.144;25.200;2023-08-06T13:54:44;7.47;;;5.07;;
71148;SDS011;59072;42.144;25.200;2023-08-06T13:57:12;6.18;;;4.38;;
71148;SDS011;59072;42.144;25.200;2023-08-06T13:59:42;6.30;;;4.40;;
71148;SDS011;59072;42.144;25.200;2023-08-06T14:02:08;6.20;;;4.55;;
71148;SDS011;59072;42.144;25.200;2023-08-06T14:04:34;5.85;;;3.70;;
71148;SDS011;59072;42.144;25.200;2023-08-06T14:06:59;4.65;;;3.40;;
71148;SDS011;59072;42.144;25.200;2023-08-06T14:09:25;5.03;;;3.20;;
71148;SDS011;59072;42.144;25.200;2023-08-06T14:11:50;5.60;;;3.33;;
71148;SDS011;59072;42.144;25.200;2023-08-06T14:14:16;6.55;;;3.67;;
71148;SDS011;59072;42.144;25.200;2023-08-06T14:16:41;6.07;;;3.10;;
71148;SDS011;59072;42.144;25.200;2023-08-06T14:19:06;3.83;;;3.10;;
71148;SDS011;59072;42.144;25.200;2023-08-06T14:21:32;6.43;;;3.50;;
71148;SDS011;59072;42.144;25.200;2023-08-06T14:23:57;4.88;;;2.75;;
71148;SDS011;59072;42.144;25.200;2023-08-06T14:26:23;3.42;;;2.58;;
71148;SDS011;59072;42.144;25.200;2023-08-06T14:28:48;5.18;;;2.72;;
71148;SDS011;59072;42.144;25.200;2023-08-06T14:31:14;4.80;;;3.10;;
71148;SDS011;59072;42.144;25.200;2023-08-06T14:33:39;4.57;;;2.70;;
71148;SDS011;59072;42.144;25.200;2023-08-06T14:36:07;4.22;;;3.00;;
71148;SDS011;59072;42.144;25.200;2023-08-06T14:38:33;7.80;;;3.20;;
71148;SDS011;59072;42.144;25.200;2023-08-06T14:40:58;4.53;;;2.53;;
71148;SDS011;59072;42.144;25.200;2023-08-06T14:43:24;3.88;;;2.65;;
71148;SDS011;59072;42.144;25.200;2023-08-06T14:45:49;4.65;;;2.88;;
71148;SDS011;59072;42.144;25.200;2023-08-06T14:48:17;4.88;;;2.70;;